sensor_id;sensor_type;location;lat;lon;timestamp;P1;durP1;ratioP1;P2;durP2;ratioP2
58015;SDS011;43809;52.110;20.964;2023-06-14T00:01:09;4.95;;;3.45;;
58015;SDS011;43809;52.110;20.964;2023-06-14T00:03:09;4.60;;;3.38;;
58015;SDS011;43809;52.110;20.964;2023-06-14T00:05:11;3.55;;;3.05;;
58015;SDS011;43809;52.110;20.964;2023-06-14T00:07:12;3.28;;;2.63;;
58015;SDS011;43809;52.110;20.964;2023-06-14T00:09:18;5.25;;;3.67;;
58015;SDS011;43809;52.110;20.964;2023-06-14T00:11:18;5.90;;;4.00;;
58015;SDS011;43809;52.110;20.964;2023-06-14T00:13:18;4.33;;;3.00;;
58015;SDS011;43809;52.110;20.964;2023-06-14T00:15:19;4.22;;;2.92;;
58015;SDS011;43809;52.110;20.964;2023-06-14T00:17:19;6.03;;;3.35;;
58015;SDS011;43809;52.110;20.964;2023-06-14T00:19:20;3.40;;;2.90;;
58015;SDS011;43809;52.110;20.964;2023-06-14T00:23:28;3.35;;;2.70;;
58015;SDS011;43809;52.110;20.964;2023-06-14T00:25:28;3.10;;;2.58;;
58015;SDS011;43809;52.110;20.964;2023-06-14T00:27:28;2.00;;;1.80;;
58015;SDS011;43809;52.110;20.964;2023-06-14T00:29:29;3.70;;;2.33;;
58015;SDS011;43809;52.110;20.964;2023-06-14T00:31:43;2.25;;;1.95;;
58015;SDS011;43809;52.110;20.964;2023-06-14T00:33:43;2.03;;;1.83;;
58015;SDS011;43809;52.110;20.964;2023-06-14T00:35:43;2.15;;;1.92;;
58015;SDS011;43809;52.110;20.964;2023-06-14T00:37:44;4.70;;;2.63;;
58015;SDS011;43809;52.110;20.964;2023-06-14T00:42:31;4.80;;;3.22;;
58015;SDS011;43809;52.110;20.964;2023-06-14T00:44:31;3.75;;;3.10;;
58015;SDS011;43809;52.110;20.964;2023-06-14T00:46:32;4.10;;;3.00;;
58015;SDS011;43809;52.110;20.964;2023-06-14T00:48:32;2.90;;;2.50;;
58015;SDS011;43809;52.110;20.964;2023-06-14T00:50:33;4.85;;;2.92;;
58015;SDS011;43809;52.110;20.964;2023-06-14T00:52:33;3.00;;;2.53;;
58015;SDS011;43809;52.110;20.964;2023-06-14T00:54:34;3.05;;;2.50;;
58015;SDS011;43809;52.110;20.964;2023-06-14T00:56:38;2.73;;;2.27;;
58015;SDS011;43809;52.110;20.964;2023-06-14T00:58:39;2.50;;;2.30;;
58015;SDS011;43809;52.110;20.964;2023-06-14T01:00:39;2.95;;;2.47;;
58015;SDS011;43809;52.110;20.964;2023-06-14T01:02:39;3.03;;;2.72;;
58015;SDS011;43809;52.110;20.964;2023-06-14T01:04:40;6.13;;;4.40;;
58015;SDS011;43809;52.110;20.964;2023-06-14T01:06:44;4.63;;;4.10;;
58015;SDS011;43809;52.110;20.964;2023-06-14T01:08:50;5.78;;;3.45;;
58015;SDS011;43809;52.110;20.964;2023-06-14T01:11:14;4.03;;;3.65;;
58015;SDS011;43809;52.110;20.964;2023-06-14T01:13:35;5.05;;;3.53;;
58015;SDS011;43809;52.110;20.964;2023-06-14T01:15:36;4.35;;;3.70;;
58015;SDS011;43809;52.110;20.964;2023-06-14T01:17:37;5.60;;;4.22;;
58015;SDS011;43809;52.110;20.964;2023-06-14T01:19:43;4.22;;;3.25;;
58015;SDS011;43809;52.110;20.964;2023-06-14T01:21:44;4.43;;;3.55;;
58015;SDS011;43809;52.110;20.964;2023-06-14T01:23:44;5.37;;;4.00;;
58015;SDS011;43809;52.110;20.964;2023-06-14T01:25:44;4.18;;;3.60;;
58015;SDS011;43809;52.110;20.964;2023-06-14T01:27:45;6.45;;;4.95;;
58015;SDS011;43809;52.110;20.964;2023-06-14T01:29:45;6.43;;;4.53;;
58015;SDS011;43809;52.110;20.964;2023-06-14T01:31:53;10.88;;;8.32;;
58015;SDS011;43809;52.110;20.964;2023-06-14T01:33:54;8.18;;;6.32;;
58015;SDS011;43809;52.110;20.964;2023-06-14T01:35:54;9.15;;;6.03;;
58015;SDS011;43809;52.110;20.964;2023-06-14T01:37:55;8.40;;;6.68;;
58015;SDS011;43809;52.110;20.964;2023-06-14T01:39:57;6.85;;;5.63;;
58015;SDS011;43809;52.110;20.964;2023-06-14T01:41:58;7.70;;;5.50;;
58015;SDS011;43809;52.110;20.964;2023-06-14T01:43:58;8.95;;;6.20;;
58015;SDS011;43809;52.110;20.964;2023-06-14T01:45:59;8.07;;;6.30;;
58015;SDS011;43809;52.110;20.964;2023-06-14T01:48:00;7.95;;;6.85;;
58015;SDS011;43809;52.110;20.964;2023-06-14T01:50:01;8.07;;;6.05;;
58015;SDS011;43809;52.110;20.964;2023-06-14T01:52:01;8.32;;;6.40;;
58015;SDS011;43809;52.110;20.964;2023-06-14T01:54:03;9.43;;;6.60;;
58015;SDS011;43809;52.110;20.964;2023-06-14T01:56:03;8.10;;;6.13;;
58015;SDS011;43809;52.110;20.964;2023-06-14T01:58:04;9.10;;;5.97;;
58015;SDS011;43809;52.110;20.964;2023-06-14T02:00:05;7.95;;;6.30;;
58015;SDS011;43809;52.110;20.964;2023-06-14T02:02:10;10.73;;;7.43;;
58015;SDS011;43809;52.110;20.964;2023-06-14T02:04:10;8.10;;;6.43;;
58015;SDS011;43809;52.110;20.964;2023-06-14T02:06:10;8.82;;;6.07;;
58015;SDS011;43809;52.110;20.964;2023-06-14T02:08:12;9.68;;;5.95;;
58015;SDS011;43809;52.110;20.964;2023-06-14T02:10:12;9.13;;;6.93;;
58015;SDS011;43809;52.110;20.964;2023-06-14T02:12:13;11.25;;;8.38;;
58015;SDS011;43809;52.110;20.964;2023-06-14T02:14:13;11.30;;;8.15;;
58015;SDS011;43809;52.110;20.964;2023-06-14T02:16:14;10.45;;;7.50;;
58015;SDS011;43809;52.110;20.964;2023-06-14T02:20:17;8.95;;;6.85;;
58015;SDS011;43809;52.110;20.964;2023-06-14T02:22:18;9.10;;;6.38;;
58015;SDS011;43809;52.110;20.964;2023-06-14T02:24:20;7.28;;;5.65;;
58015;SDS011;43809;52.110;20.964;2023-06-14T02:26:20;5.90;;;5.22;;
58015;SDS011;43809;52.110;20.964;2023-06-14T02:28:20;5.63;;;4.30;;
58015;SDS011;43809;52.110;20.964;2023-06-14T02:30:21;5.05;;;4.53;;
58015;SDS011;43809;52.110;20.964;2023-06-14T02:32:21;7.10;;;4.95;;
58015;SDS011;43809;52.110;20.964;2023-06-14T02:34:21;6.40;;;5.15;;
58015;SDS011;43809;52.110;20.964;2023-06-14T02:36:21;6.78;;;5.43;;
58015;SDS011;43809;52.110;20.964;2023-06-14T02:38:22;5.50;;;4.70;;
58015;SDS011;43809;52.110;20.964;2023-06-14T02:40:22;6.72;;;5.25;;
58015;SDS011;43809;52.110;20.964;2023-06-14T02:42:23;6.07;;;4.82;;
58015;SDS011;43809;52.110;20.964;2023-06-14T02:44:26;8.13;;;5.60;;
58015;SDS011;43809;52.110;20.964;2023-06-14T02:46:27;8.95;;;6.32;;
58015;SDS011;43809;52.110;20.964;2023-06-14T02:48:27;7.18;;;5.50;;
58015;SDS011;43809;52.110;20.964;2023-06-14T02:50:28;6.70;;;5.20;;
58015;SDS011;43809;52.110;20.964;2023-06-14T02:52:31;5.00;;;4.43;;
58015;SDS011;43809;52.110;20.964;2023-06-14T02:54:33;7.10;;;5.32;;
58015;SDS011;43809;52.110;20.964;2023-06-14T02:56:33;4.90;;;4.15;;
58015;SDS011;43809;52.110;20.964;2023-06-14T02:58:33;5.38;;;4.50;;
58015;SDS011;43809;52.110;20.964;2023-06-14T03:00:33;5.87;;;4.40;;
58015;SDS011;43809;52.110;20.964;2023-06-14T03:02:35;5.93;;;4.68;;
58015;SDS011;43809;52.110;20.964;2023-06-14T03:04:35;5.47;;;4.40;;
58015;SDS011;43809;52.110;20.964;2023-06-14T03:06:37;6.68;;;4.60;;
58015;SDS011;43809;52.110;20.964;2023-06-14T03:08:37;5.30;;;3.75;;
58015;SDS011;43809;52.110;20.964;2023-06-14T03:10:41;4.20;;;3.35;;
58015;SDS011;43809;52.110;20.964;2023-06-14T03:12:43;4.18;;;3.35;;
58015;SDS011;43809;52.110;20.964;2023-06-14T03:14:43;3.03;;;2.72;;
58015;SDS011;43809;52.110;20.964;2023-06-14T03:16:46;3.00;;;2.70;;
58015;SDS011;43809;52.110;20.964;2023-06-14T03:21:15;4.22;;;3.40;;
58015;SDS011;43809;52.110;20.964;2023-06-14T03:23:16;3.97;;;3.35;;
58015;SDS011;43809;52.110;20.964;2023-06-14T03:25:16;4.50;;;3.47;;
58015;SDS011;43809;52.110;20.964;2023-06-14T03:27:16;5.60;;;3.60;;
58015;SDS011;43809;52.110;20.964;2023-06-14T03:29:17;3.47;;;3.07;;
58015;SDS011;43809;52.110;20.964;2023-06-14T03:31:18;4.28;;;3.40;;
58015;SDS011;43809;52.110;20.964;2023-06-14T03:33:19;2.53;;;2.28;;
58015;SDS011;43809;52.110;20.964;2023-06-14T03:35:19;2.60;;;2.28;;
58015;SDS011;43809;52.110;20.964;2023-06-14T03:37:19;2.60;;;2.13;;
58015;SDS011;43809;52.110;20.964;2023-06-14T03:39:22;3.25;;;2.33;;
58015;SDS011;43809;52.110;20.964;2023-06-14T03:41:22;3.30;;;3.00;;
58015;SDS011;43809;52.110;20.964;2023-06-14T03:43:22;4.53;;;3.27;;
58015;SDS011;43809;52.110;20.964;2023-06-14T03:45:22;3.35;;;3.00;;
58015;SDS011;43809;52.110;20.964;2023-06-14T03:49:50;3.40;;;2.90;;
58015;SDS011;43809;52.110;20.964;2023-06-14T03:51:50;3.33;;;2.75;;
58015;SDS011;43809;52.110;20.964;2023-06-14T03:53:51;3.75;;;2.95;;
58015;SDS011;43809;52.110;20.964;2023-06-14T03:55:51;3.67;;;3.22;;
58015;SDS011;43809;52.110;20.964;2023-06-14T03:57:54;4.95;;;4.10;;
58015;SDS011;43809;52.110;20.964;2023-06-14T03:59:54;4.65;;;3.80;;
58015;SDS011;43809;52.110;20.964;2023-06-14T04:01:55;3.85;;;3.45;;
58015;SDS011;43809;52.110;20.964;2023-06-14T04:06:28;3.20;;;2.88;;
58015;SDS011;43809;52.110;20.964;2023-06-14T04:08:32;3.72;;;3.35;;
58015;SDS011;43809;52.110;20.964;2023-06-14T04:10:32;3.00;;;2.63;;
58015;SDS011;43809;52.110;20.964;2023-06-14T04:12:32;3.00;;;2.63;;
58015;SDS011;43809;52.110;20.964;2023-06-14T04:14:32;4.83;;;3.70;;
58015;SDS011;43809;52.110;20.964;2023-06-14T04:16:33;3.10;;;2.70;;
58015;SDS011;43809;52.110;20.964;2023-06-14T04:18:33;4.38;;;3.42;;
58015;SDS011;43809;52.110;20.964;2023-06-14T04:20:33;5.50;;;4.07;;
58015;SDS011;43809;52.110;20.964;2023-06-14T04:22:34;4.60;;;3.90;;
58015;SDS011;43809;52.110;20.964;2023-06-14T04:24:51;4.00;;;3.60;;
58015;SDS011;43809;52.110;20.964;2023-06-14T04:26:52;3.65;;;3.15;;
58015;SDS011;43809;52.110;20.964;2023-06-14T04:31:16;4.32;;;3.63;;
58015;SDS011;43809;52.110;20.964;2023-06-14T04:33:16;3.65;;;3.20;;
58015;SDS011;43809;52.110;20.964;2023-06-14T04:35:17;4.93;;;3.45;;
58015;SDS011;43809;52.110;20.964;2023-06-14T04:37:17;4.10;;;3.37;;
58015;SDS011;43809;52.110;20.964;2023-06-14T04:39:20;4.82;;;3.67;;
58015;SDS011;43809;52.110;20.964;2023-06-14T04:41:23;4.78;;;3.95;;
58015;SDS011;43809;52.110;20.964;2023-06-14T04:43:28;4.32;;;3.67;;
58015;SDS011;43809;52.110;20.964;2023-06-14T04:45:29;4.23;;;3.47;;
58015;SDS011;43809;52.110;20.964;2023-06-14T04:47:31;4.45;;;4.05;;
58015;SDS011;43809;52.110;20.964;2023-06-14T04:49:32;3.92;;;3.53;;
58015;SDS011;43809;52.110;20.964;2023-06-14T04:51:35;5.13;;;3.77;;
58015;SDS011;43809;52.110;20.964;2023-06-14T04:53:36;4.10;;;3.70;;
58015;SDS011;43809;52.110;20.964;2023-06-14T04:55:37;3.95;;;3.50;;
58015;SDS011;43809;52.110;20.964;2023-06-14T04:59:47;3.28;;;2.97;;
58015;SDS011;43809;52.110;20.964;2023-06-14T05:01:51;4.22;;;3.63;;
58015;SDS011;43809;52.110;20.964;2023-06-14T05:03:53;5.72;;;2.80;;
58015;SDS011;43809;52.110;20.964;2023-06-14T05:05:53;3.80;;;3.22;;
58015;SDS011;43809;52.110;20.964;2023-06-14T05:07:53;3.53;;;3.13;;
58015;SDS011;43809;52.110;20.964;2023-06-14T05:09:53;3.77;;;2.97;;
58015;SDS011;43809;52.110;20.964;2023-06-14T05:11:54;3.03;;;2.63;;
58015;SDS011;43809;52.110;20.964;2023-06-14T05:13:54;2.60;;;2.40;;
58015;SDS011;43809;52.110;20.964;2023-06-14T05:15:54;2.92;;;2.42;;
58015;SDS011;43809;52.110;20.964;2023-06-14T05:17:54;2.93;;;2.17;;
58015;SDS011;43809;52.110;20.964;2023-06-14T05:19:55;3.33;;;2.90;;
58015;SDS011;43809;52.110;20.964;2023-06-14T05:21:58;3.42;;;2.90;;
58015;SDS011;43809;52.110;20.964;2023-06-14T05:23:59;3.38;;;2.70;;
58015;SDS011;43809;52.110;20.964;2023-06-14T05:25:59;4.20;;;3.30;;
58015;SDS011;43809;52.110;20.964;2023-06-14T05:28:00;4.15;;;3.15;;
58015;SDS011;43809;52.110;20.964;2023-06-14T05:30:00;3.50;;;3.15;;
58015;SDS011;43809;52.110;20.964;2023-06-14T05:34:22;5.75;;;3.80;;
58015;SDS011;43809;52.110;20.964;2023-06-14T05:36:22;4.90;;;3.50;;
58015;SDS011;43809;52.110;20.964;2023-06-14T05:38:22;4.90;;;3.60;;
58015;SDS011;43809;52.110;20.964;2023-06-14T05:40:23;4.80;;;3.63;;
58015;SDS011;43809;52.110;20.964;2023-06-14T05:42:23;5.80;;;4.20;;
58015;SDS011;43809;52.110;20.964;2023-06-14T05:44:23;5.03;;;3.37;;
58015;SDS011;43809;52.110;20.964;2023-06-14T05:46:37;3.60;;;3.30;;
58015;SDS011;43809;52.110;20.964;2023-06-14T05:48:39;4.18;;;3.53;;
58015;SDS011;43809;52.110;20.964;2023-06-14T05:50:40;4.32;;;3.92;;
58015;SDS011;43809;52.110;20.964;2023-06-14T05:52:40;4.97;;;3.50;;
58015;SDS011;43809;52.110;20.964;2023-06-14T05:54:40;4.43;;;3.53;;
58015;SDS011;43809;52.110;20.964;2023-06-14T05:56:41;4.95;;;3.28;;
58015;SDS011;43809;52.110;20.964;2023-06-14T05:58:41;5.43;;;4.07;;
58015;SDS011;43809;52.110;20.964;2023-06-14T06:00:41;5.27;;;4.30;;
58015;SDS011;43809;52.110;20.964;2023-06-14T06:02:44;5.18;;;4.45;;
58015;SDS011;43809;52.110;20.964;2023-06-14T06:04:45;3.70;;;3.17;;
58015;SDS011;43809;52.110;20.964;2023-06-14T06:06:45;4.47;;;4.07;;
58015;SDS011;43809;52.110;20.964;2023-06-14T06:08:45;4.30;;;3.90;;
58015;SDS011;43809;52.110;20.964;2023-06-14T06:10:45;4.90;;;4.20;;
58015;SDS011;43809;52.110;20.964;2023-06-14T06:12:45;4.50;;;4.10;;
58015;SDS011;43809;52.110;20.964;2023-06-14T06:14:47;4.40;;;4.00;;
58015;SDS011;43809;52.110;20.964;2023-06-14T06:16:47;4.43;;;4.00;;
58015;SDS011;43809;52.110;20.964;2023-06-14T06:18:48;5.22;;;4.43;;
58015;SDS011;43809;52.110;20.964;2023-06-14T06:20:48;6.25;;;4.25;;
58015;SDS011;43809;52.110;20.964;2023-06-14T06:22:48;4.30;;;3.80;;
58015;SDS011;43809;52.110;20.964;2023-06-14T06:24:48;5.73;;;4.00;;
58015;SDS011;43809;52.110;20.964;2023-06-14T06:26:49;5.30;;;4.80;;
58015;SDS011;43809;52.110;20.964;2023-06-14T06:28:49;4.83;;;4.17;;
58015;SDS011;43809;52.110;20.964;2023-06-14T06:30:49;4.77;;;3.87;;
58015;SDS011;43809;52.110;20.964;2023-06-14T06:32:51;3.83;;;3.45;;
58015;SDS011;43809;52.110;20.964;2023-06-14T06:34:51;4.55;;;3.78;;
58015;SDS011;43809;52.110;20.964;2023-06-14T06:37:04;4.10;;;3.00;;
58015;SDS011;43809;52.110;20.964;2023-06-14T06:39:06;4.22;;;3.60;;
58015;SDS011;43809;52.110;20.964;2023-06-14T06:41:09;4.68;;;3.78;;
58015;SDS011;43809;52.110;20.964;2023-06-14T06:43:10;4.03;;;3.50;;
58015;SDS011;43809;52.110;20.964;2023-06-14T06:45:13;3.88;;;3.08;;
58015;SDS011;43809;52.110;20.964;2023-06-14T06:47:13;3.53;;;3.20;;
58015;SDS011;43809;52.110;20.964;2023-06-14T06:49:14;5.63;;;3.77;;
58015;SDS011;43809;52.110;20.964;2023-06-14T06:51:14;3.00;;;2.70;;
58015;SDS011;43809;52.110;20.964;2023-06-14T06:53:14;3.00;;;2.65;;
58015;SDS011;43809;52.110;20.964;2023-06-14T06:55:15;3.47;;;3.17;;
58015;SDS011;43809;52.110;20.964;2023-06-14T06:57:17;3.90;;;2.50;;
58015;SDS011;43809;52.110;20.964;2023-06-14T06:59:17;3.58;;;2.70;;
58015;SDS011;43809;52.110;20.964;2023-06-14T07:01:17;3.87;;;3.03;;
58015;SDS011;43809;52.110;20.964;2023-06-14T07:03:19;4.82;;;3.30;;
58015;SDS011;43809;52.110;20.964;2023-06-14T07:05:19;2.87;;;2.60;;
58015;SDS011;43809;52.110;20.964;2023-06-14T07:07:20;2.87;;;2.67;;
58015;SDS011;43809;52.110;20.964;2023-06-14T07:09:20;2.50;;;2.30;;
58015;SDS011;43809;52.110;20.964;2023-06-14T07:11:20;4.10;;;2.97;;
58015;SDS011;43809;52.110;20.964;2023-06-14T07:13:21;2.97;;;2.30;;
58015;SDS011;43809;52.110;20.964;2023-06-14T07:15:21;2.97;;;2.65;;
58015;SDS011;43809;52.110;20.964;2023-06-14T07:17:22;2.90;;;2.20;;
58015;SDS011;43809;52.110;20.964;2023-06-14T07:19:22;3.30;;;3.00;;
58015;SDS011;43809;52.110;20.964;2023-06-14T07:21:23;6.23;;;3.47;;
58015;SDS011;43809;52.110;20.964;2023-06-14T07:23:23;3.55;;;3.10;;
58015;SDS011;43809;52.110;20.964;2023-06-14T07:25:23;4.15;;;2.80;;
58015;SDS011;43809;52.110;20.964;2023-06-14T07:27:24;3.05;;;2.60;;
58015;SDS011;43809;52.110;20.964;2023-06-14T07:29:24;3.88;;;2.97;;
58015;SDS011;43809;52.110;20.964;2023-06-14T07:31:24;5.40;;;3.42;;
58015;SDS011;43809;52.110;20.964;2023-06-14T07:33:24;3.20;;;2.63;;
58015;SDS011;43809;52.110;20.964;2023-06-14T07:35:25;4.70;;;2.63;;
58015;SDS011;43809;52.110;20.964;2023-06-14T07:37:25;3.50;;;3.00;;
58015;SDS011;43809;52.110;20.964;2023-06-14T07:39:25;3.30;;;3.00;;
58015;SDS011;43809;52.110;20.964;2023-06-14T07:41:39;3.80;;;2.57;;
58015;SDS011;43809;52.110;20.964;2023-06-14T07:43:40;6.65;;;3.10;;
58015;SDS011;43809;52.110;20.964;2023-06-14T07:45:40;4.53;;;3.60;;
58015;SDS011;43809;52.110;20.964;2023-06-14T07:47:40;4.30;;;3.60;;
58015;SDS011;43809;52.110;20.964;2023-06-14T07:49:40;2.50;;;2.30;;
58015;SDS011;43809;52.110;20.964;2023-06-14T07:51:43;3.28;;;2.97;;
58015;SDS011;43809;52.110;20.964;2023-06-14T07:53:48;2.42;;;2.22;;
58015;SDS011;43809;52.110;20.964;2023-06-14T07:55:48;3.97;;;2.88;;
58015;SDS011;43809;52.110;20.964;2023-06-14T07:57:48;2.63;;;2.43;;
58015;SDS011;43809;52.110;20.964;2023-06-14T07:59:49;3.45;;;2.42;;
58015;SDS011;43809;52.110;20.964;2023-06-14T08:01:56;2.72;;;2.50;;
58015;SDS011;43809;52.110;20.964;2023-06-14T08:03:56;3.95;;;2.50;;
58015;SDS011;43809;52.110;20.964;2023-06-14T08:05:56;2.88;;;2.55;;
58015;SDS011;43809;52.110;20.964;2023-06-14T08:07:57;3.20;;;2.90;;
58015;SDS011;43809;52.110;20.964;2023-06-14T08:09:57;3.50;;;2.60;;
58015;SDS011;43809;52.110;20.964;2023-06-14T08:11:57;2.77;;;2.40;;
58015;SDS011;43809;52.110;20.964;2023-06-14T08:13:57;3.30;;;3.00;;
58015;SDS011;43809;52.110;20.964;2023-06-14T08:15:57;3.30;;;2.97;;
58015;SDS011;43809;52.110;20.964;2023-06-14T08:18:01;3.45;;;2.58;;
58015;SDS011;43809;52.110;20.964;2023-06-14T08:20:02;2.75;;;2.55;;
58015;SDS011;43809;52.110;20.964;2023-06-14T08:22:04;2.60;;;2.40;;
58015;SDS011;43809;52.110;20.964;2023-06-14T08:24:05;2.33;;;2.00;;
58015;SDS011;43809;52.110;20.964;2023-06-14T08:26:08;2.85;;;2.65;;
58015;SDS011;43809;52.110;20.964;2023-06-14T08:28:08;2.75;;;2.35;;
58015;SDS011;43809;52.110;20.964;2023-06-14T08:30:09;4.40;;;2.50;;
58015;SDS011;43809;52.110;20.964;2023-06-14T08:32:10;3.20;;;2.67;;
58015;SDS011;43809;52.110;20.964;2023-06-14T08:34:16;2.90;;;2.40;;
58015;SDS011;43809;52.110;20.964;2023-06-14T08:36:17;4.43;;;2.70;;
58015;SDS011;43809;52.110;20.964;2023-06-14T08:38:17;4.07;;;2.60;;
58015;SDS011;43809;52.110;20.964;2023-06-14T08:40:21;2.58;;;2.35;;
58015;SDS011;43809;52.110;20.964;2023-06-14T08:42:21;2.78;;;2.38;;
58015;SDS011;43809;52.110;20.964;2023-06-14T08:44:23;3.10;;;2.10;;
58015;SDS011;43809;52.110;20.964;2023-06-14T08:46:25;2.80;;;2.38;;
58015;SDS011;43809;52.110;20.964;2023-06-14T08:48:27;3.28;;;2.50;;
58015;SDS011;43809;52.110;20.964;2023-06-14T08:50:27;2.10;;;1.90;;
58015;SDS011;43809;52.110;20.964;2023-06-14T08:52:31;3.72;;;2.92;;
58015;SDS011;43809;52.110;20.964;2023-06-14T08:54:33;4.13;;;2.90;;
58015;SDS011;43809;52.110;20.964;2023-06-14T08:56:36;3.22;;;2.80;;
58015;SDS011;43809;52.110;20.964;2023-06-14T08:58:37;2.73;;;2.53;;
58015;SDS011;43809;52.110;20.964;2023-06-14T09:00:43;2.55;;;2.10;;
58015;SDS011;43809;52.110;20.964;2023-06-14T09:02:51;2.80;;;2.10;;
58015;SDS011;43809;52.110;20.964;2023-06-14T09:04:55;4.53;;;2.30;;
58015;SDS011;43809;52.110;20.964;2023-06-14T09:06:59;2.67;;;2.28;;
58015;SDS011;43809;52.110;20.964;2023-06-14T09:09:00;2.65;;;2.25;;
58015;SDS011;43809;52.110;20.964;2023-06-14T09:11:02;2.97;;;2.60;;
58015;SDS011;43809;52.110;20.964;2023-06-14T09:13:02;2.67;;;2.47;;
58015;SDS011;43809;52.110;20.964;2023-06-14T09:15:04;2.67;;;2.47;;
58015;SDS011;43809;52.110;20.964;2023-06-14T09:17:06;3.13;;;2.50;;
58015;SDS011;43809;52.110;20.964;2023-06-14T09:21:41;2.65;;;2.40;;
58015;SDS011;43809;52.110;20.964;2023-06-14T09:23:42;3.20;;;2.83;;
58015;SDS011;43809;52.110;20.964;2023-06-14T09:25:42;4.22;;;2.40;;
58015;SDS011;43809;52.110;20.964;2023-06-14T09:27:43;5.82;;;3.47;;
58015;SDS011;43809;52.110;20.964;2023-06-14T09:29:45;5.45;;;3.40;;
58015;SDS011;43809;52.110;20.964;2023-06-14T09:31:46;5.13;;;3.50;;
58015;SDS011;43809;52.110;20.964;2023-06-14T09:33:47;4.80;;;2.95;;
58015;SDS011;43809;52.110;20.964;2023-06-14T09:35:51;4.45;;;3.38;;
58015;SDS011;43809;52.110;20.964;2023-06-14T09:37:51;4.88;;;3.50;;
58015;SDS011;43809;52.110;20.964;2023-06-14T09:39:51;3.63;;;3.28;;
58015;SDS011;43809;52.110;20.964;2023-06-14T09:41:52;4.33;;;2.70;;
58015;SDS011;43809;52.110;20.964;2023-06-14T09:45:57;4.18;;;2.50;;
58015;SDS011;43809;52.110;20.964;2023-06-14T09:47:57;6.90;;;3.33;;
58015;SDS011;43809;52.110;20.964;2023-06-14T09:49:58;3.93;;;2.97;;
58015;SDS011;43809;52.110;20.964;2023-06-14T09:52:00;5.85;;;3.38;;
58015;SDS011;43809;52.110;20.964;2023-06-14T09:54:01;4.38;;;3.40;;
58015;SDS011;43809;52.110;20.964;2023-06-14T09:56:01;3.90;;;3.60;;
58015;SDS011;43809;52.110;20.964;2023-06-14T09:58:04;4.22;;;2.90;;
58015;SDS011;43809;52.110;20.964;2023-06-14T10:00:04;6.15;;;3.40;;
58015;SDS011;43809;52.110;20.964;2023-06-14T10:02:18;3.85;;;3.05;;
58015;SDS011;43809;52.110;20.964;2023-06-14T10:04:21;4.63;;;3.30;;
58015;SDS011;43809;52.110;20.964;2023-06-14T10:06:22;3.90;;;3.50;;
58015;SDS011;43809;52.110;20.964;2023-06-14T10:10:25;3.97;;;3.08;;
58015;SDS011;43809;52.110;20.964;2023-06-14T10:12:26;4.23;;;3.43;;
58015;SDS011;43809;52.110;20.964;2023-06-14T10:14:26;4.72;;;3.92;;
58015;SDS011;43809;52.110;20.964;2023-06-14T10:20:53;7.55;;;3.58;;
58015;SDS011;43809;52.110;20.964;2023-06-14T10:23:07;4.43;;;2.80;;
58015;SDS011;43809;52.110;20.964;2023-06-14T10:25:12;4.90;;;4.32;;
58015;SDS011;43809;52.110;20.964;2023-06-14T10:27:13;4.68;;;3.97;;
58015;SDS011;43809;52.110;20.964;2023-06-14T10:29:13;3.38;;;2.97;;
58015;SDS011;43809;52.110;20.964;2023-06-14T10:31:13;5.90;;;4.30;;
58015;SDS011;43809;52.110;20.964;2023-06-14T10:33:14;3.85;;;2.90;;
58015;SDS011;43809;52.110;20.964;2023-06-14T10:35:16;4.77;;;2.70;;
58015;SDS011;43809;52.110;20.964;2023-06-14T10:37:16;4.15;;;2.95;;
58015;SDS011;43809;52.110;20.964;2023-06-14T10:41:50;5.35;;;3.25;;
58015;SDS011;43809;52.110;20.964;2023-06-14T10:43:51;4.03;;;2.75;;
58015;SDS011;43809;52.110;20.964;2023-06-14T10:48:12;2.40;;;2.15;;
58015;SDS011;43809;52.110;20.964;2023-06-14T10:50:29;2.70;;;2.40;;
58015;SDS011;43809;52.110;20.964;2023-06-14T10:52:31;3.42;;;2.90;;
58015;SDS011;43809;52.110;20.964;2023-06-14T10:54:33;4.50;;;2.70;;
58015;SDS011;43809;52.110;20.964;2023-06-14T10:56:33;2.77;;;2.57;;
58015;SDS011;43809;52.110;20.964;2023-06-14T10:58:33;4.70;;;2.92;;
58015;SDS011;43809;52.110;20.964;2023-06-14T11:00:33;4.30;;;3.17;;
58015;SDS011;43809;52.110;20.964;2023-06-14T11:04:57;2.67;;;2.42;;
58015;SDS011;43809;52.110;20.964;2023-06-14T11:11:23;3.88;;;2.88;;
58015;SDS011;43809;52.110;20.964;2023-06-14T11:13:25;3.47;;;3.00;;
58015;SDS011;43809;52.110;20.964;2023-06-14T11:15:29;3.10;;;2.80;;
58015;SDS011;43809;52.110;20.964;2023-06-14T11:17:29;4.03;;;2.80;;
58015;SDS011;43809;52.110;20.964;2023-06-14T11:19:30;3.08;;;2.20;;
58015;SDS011;43809;52.110;20.964;2023-06-14T11:21:32;3.20;;;2.40;;
58015;SDS011;43809;52.110;20.964;2023-06-14T11:23:33;4.30;;;2.67;;
58015;SDS011;43809;52.110;20.964;2023-06-14T11:27:58;3.28;;;2.70;;
58015;SDS011;43809;52.110;20.964;2023-06-14T11:29:59;3.80;;;2.92;;
58015;SDS011;43809;52.110;20.964;2023-06-14T11:31:59;3.95;;;2.72;;
58015;SDS011;43809;52.110;20.964;2023-06-14T11:36:34;3.30;;;2.83;;
58015;SDS011;43809;52.110;20.964;2023-06-14T11:38:35;2.97;;;2.78;;
58015;SDS011;43809;52.110;20.964;2023-06-14T11:40:37;3.92;;;2.95;;
58015;SDS011;43809;52.110;20.964;2023-06-14T11:42:38;4.03;;;3.10;;
58015;SDS011;43809;52.110;20.964;2023-06-14T11:44:38;3.15;;;2.85;;
58015;SDS011;43809;52.110;20.964;2023-06-14T11:46:48;4.07;;;3.10;;
58015;SDS011;43809;52.110;20.964;2023-06-14T11:48:48;4.38;;;3.25;;
58015;SDS011;43809;52.110;20.964;2023-06-14T11:50:49;3.53;;;2.80;;
58015;SDS011;43809;52.110;20.964;2023-06-14T11:52:53;4.03;;;3.40;;
58015;SDS011;43809;52.110;20.964;2023-06-14T11:54:54;3.13;;;2.80;;
58015;SDS011;43809;52.110;20.964;2023-06-14T11:56:54;4.85;;;3.10;;
58015;SDS011;43809;52.110;20.964;2023-06-14T11:58:55;3.35;;;2.40;;
58015;SDS011;43809;52.110;20.964;2023-06-14T12:00:58;3.08;;;2.78;;
58015;SDS011;43809;52.110;20.964;2023-06-14T12:02:58;4.27;;;3.13;;
58015;SDS011;43809;52.110;20.964;2023-06-14T12:05:03;4.65;;;3.20;;
58015;SDS011;43809;52.110;20.964;2023-06-14T12:07:10;4.95;;;3.25;;
58015;SDS011;43809;52.110;20.964;2023-06-14T12:09:17;4.30;;;3.10;;
58015;SDS011;43809;52.110;20.964;2023-06-14T12:13:40;3.25;;;2.83;;
58015;SDS011;43809;52.110;20.964;2023-06-14T12:15:41;2.90;;;2.42;;
58015;SDS011;43809;52.110;20.964;2023-06-14T12:17:41;3.97;;;2.50;;
58015;SDS011;43809;52.110;20.964;2023-06-14T12:19:58;2.87;;;2.47;;
58015;SDS011;43809;52.110;20.964;2023-06-14T12:21:59;3.45;;;2.92;;
58015;SDS011;43809;52.110;20.964;2023-06-14T12:26:15;2.13;;;1.90;;
58015;SDS011;43809;52.110;20.964;2023-06-14T12:28:16;3.75;;;2.60;;
58015;SDS011;43809;52.110;20.964;2023-06-14T12:30:16;2.63;;;2.17;;
58015;SDS011;43809;52.110;20.964;2023-06-14T12:32:16;3.27;;;2.30;;
58015;SDS011;43809;52.110;20.964;2023-06-14T12:34:16;3.58;;;2.50;;
58015;SDS011;43809;52.110;20.964;2023-06-14T12:36:17;3.03;;;2.37;;
58015;SDS011;43809;52.110;20.964;2023-06-14T12:38:17;2.20;;;2.00;;
58015;SDS011;43809;52.110;20.964;2023-06-14T12:40:17;2.10;;;1.90;;
58015;SDS011;43809;52.110;20.964;2023-06-14T12:42:18;3.53;;;2.10;;
58015;SDS011;43809;52.110;20.964;2023-06-14T12:44:18;2.10;;;1.90;;
58015;SDS011;43809;52.110;20.964;2023-06-14T12:46:26;2.47;;;2.10;;
58015;SDS011;43809;52.110;20.964;2023-06-14T12:48:26;2.20;;;1.90;;
58015;SDS011;43809;52.110;20.964;2023-06-14T12:50:31;3.08;;;2.17;;
58015;SDS011;43809;52.110;20.964;2023-06-14T12:52:31;2.87;;;2.37;;
58015;SDS011;43809;52.110;20.964;2023-06-14T12:54:32;3.08;;;1.90;;